Terminal Aerodrome Forecast
Issued by NWS

Home | Current Version | Previous Version | Text Only | Print | Product List | Glossary On
Versions: 1 2 3 4 5 6 7 8 9 10 11 12 13 14 15 16 17 18 19 20 21 22
000
FTUS44 KMAF 241300 AAA
TAFHOB
TAF AMD
KHOB 241318Z 2413/2512 VRB05KT 1/4SM FG OVC001
      TEMPO 2413/2416 2SM BR OVC003
     FM241600 19005KT P6SM SKC=

USA.gov is the U.S. government's official web portal to all federal, state and local government web resources and services.